Roblin, Canada
Current Conditions -  °F | °C
As of 8:00 PM on Wednesday 26 Nov 2014 (Local Time) from CYQV Reporting Station
Clear Clear  
Wind Chill: -27°   Ceiling: Unl
Heat Index: -13°   Visibility: 9mi
Dew Point: -17°   Wind: 6mph
Humidity: 84%   Direction: 190°S
Pressure: 30.42"   Gusts: NA
Location:  51.23°N, 101.35°W
Report Text: CYQV 270200Z AUTO 19005KT 9SM CLR M25/M27 A3042 RMK SLP362
Loading
Personal Weather Stations






























Interactive Weather Map New forecast layout! Learn more

10-Day Weather Forecast

Advertisements
Track Severe Weather on mobile